createdAt,value
2024-02-09T00:00:24.718Z,993.23
2024-02-09T00:01:24.896Z,993.25
2024-02-09T00:02:24.953Z,993.22
2024-02-09T00:03:25.170Z,993.23
2024-02-09T00:04:25.404Z,993.21
2024-02-09T00:05:25.617Z,993.20
2024-02-09T00:06:26.009Z,993.25
2024-02-09T00:07:26.113Z,993.21
2024-02-09T00:08:26.275Z,993.21
2024-02-09T00:09:26.285Z,993.21
2024-02-09T00:10:26.567Z,993.14
2024-02-09T00:11:26.630Z,993.08
2024-02-09T00:12:26.813Z,993.09
2024-02-09T00:13:27.068Z,993.06
2024-02-09T00:14:27.139Z,993.11
2024-02-09T00:15:27.364Z,993.08
2024-02-09T00:16:27.507Z,993.12
2024-02-09T00:17:27.691Z,993.11
2024-02-09T00:18:27.935Z,993.09
2024-02-09T00:19:28.076Z,993.04
2024-02-09T00:20:28.173Z,993.04
2024-02-09T00:21:28.289Z,992.96
2024-02-09T00:22:28.600Z,992.96
2024-02-09T00:23:28.611Z,992.98
2024-02-09T00:24:28.812Z,992.99
2024-02-09T00:25:29.037Z,992.96
2024-02-09T00:26:29.126Z,992.93
2024-02-09T00:27:29.349Z,992.94
2024-02-09T00:28:29.596Z,992.93
2024-02-09T00:29:29.686Z,992.86
2024-02-09T00:30:29.922Z,992.89
2024-02-09T00:31:30.071Z,992.91
2024-02-09T00:32:30.172Z,992.91
2024-02-09T00:33:30.666Z,992.89
2024-02-09T00:34:30.600Z,992.94
2024-02-09T00:35:33.829Z,992.96
2024-02-09T00:36:30.768Z,992.90
2024-02-09T00:37:31.031Z,992.92
2024-02-09T00:38:31.066Z,992.88
2024-02-09T00:39:31.234Z,992.88
2024-02-09T00:40:31.511Z,992.87
2024-02-09T00:41:31.549Z,992.80
2024-02-09T00:42:31.763Z,992.79
2024-02-09T00:43:32.002Z,992.74
2024-02-09T00:44:32.184Z,992.71
2024-02-09T00:45:32.449Z,992.74
2024-02-09T00:46:32.616Z,992.70
2024-02-09T00:47:32.796Z,992.70
2024-02-09T00:48:32.915Z,992.65
2024-02-09T00:49:33.168Z,992.71
2024-02-09T00:50:33.295Z,992.67
2024-02-09T00:51:33.408Z,992.68
2024-02-09T00:52:33.594Z,992.61
2024-02-09T00:53:33.766Z,992.60
2024-02-09T00:54:33.973Z,992.61
2024-02-09T00:55:34.457Z,992.65
2024-02-09T00:56:34.323Z,992.68
2024-02-09T00:57:34.544Z,992.66
2024-02-09T00:58:34.774Z,992.63
2024-02-09T00:59:34.997Z,992.58
2024-02-09T01:00:35.191Z,992.60
2024-02-09T01:01:35.579Z,992.62
2024-02-09T01:02:35.543Z,992.58
2024-02-09T01:03:35.759Z,992.61
2024-02-09T01:04:36.053Z,992.57
2024-02-09T01:05:36.120Z,992.61
2024-02-09T01:06:36.230Z,992.59
2024-02-09T01:07:36.465Z,992.54
2024-02-09T01:08:36.614Z,992.59
2024-02-09T01:09:36.696Z,992.55
2024-02-09T01:10:36.912Z,992.57
2024-02-09T01:11:37.100Z,992.59
2024-02-09T01:12:37.312Z,992.58
2024-02-09T01:13:37.556Z,992.60
2024-02-09T01:14:37.724Z,992.61
2024-02-09T01:15:37.955Z,992.65
2024-02-09T01:16:38.158Z,992.67
2024-02-09T01:17:38.371Z,992.63
2024-02-09T01:18:38.562Z,992.68
2024-02-09T01:19:38.716Z,992.69
2024-02-09T01:20:38.912Z,992.66
2024-02-09T01:21:38.966Z,992.62
2024-02-09T01:22:39.151Z,992.62
2024-02-09T01:23:39.306Z,992.56
2024-02-09T01:24:39.503Z,992.58
2024-02-09T01:25:39.760Z,992.54
2024-02-09T01:26:39.818Z,992.53
2024-02-09T01:27:39.998Z,992.54
2024-02-09T01:28:40.233Z,992.45
2024-02-09T01:29:40.422Z,992.47
2024-02-09T01:30:40.605Z,992.45
2024-02-09T01:31:40.819Z,992.40
2024-02-09T01:32:41.016Z,992.37
2024-02-09T01:33:41.176Z,992.38
2024-02-09T01:34:41.408Z,992.30
2024-02-09T01:35:41.484Z,992.26
2024-02-09T01:36:41.679Z,992.25
2024-02-09T01:37:41.871Z,992.23
2024-02-09T01:38:42.011Z,992.17
2024-02-09T01:39:42.129Z,992.11
2024-02-09T01:40:42.382Z,992.07
2024-02-09T01:41:42.407Z,992.10
2024-02-09T01:42:42.597Z,992.05
2024-02-09T01:43:42.788Z,992.06
2024-02-09T01:44:42.938Z,992.02
2024-02-09T01:45:43.144Z,992.01
2024-02-09T01:46:43.421Z,992.00
2024-02-09T01:47:43.495Z,991.97
2024-02-09T01:48:43.733Z,991.96
2024-02-09T01:49:43.798Z,991.95
2024-02-09T01:50:43.974Z,991.95
2024-02-09T01:51:44.168Z,991.95
2024-02-09T01:52:44.392Z,991.97
2024-02-09T01:53:44.454Z,991.96
2024-02-09T01:54:44.696Z,991.93
2024-02-09T01:55:44.801Z,992.02
2024-02-09T01:56:44.966Z,991.97
2024-02-09T01:57:45.145Z,991.97
2024-02-09T01:58:45.367Z,991.95
2024-02-09T01:59:45.529Z,991.91
2024-02-09T02:00:45.720Z,991.84
2024-02-09T02:01:45.946Z,991.86
2024-02-09T02:02:46.036Z,991.84
2024-02-09T02:03:46.222Z,991.84
2024-02-09T02:04:46.387Z,991.85
2024-02-09T02:05:46.606Z,991.87
2024-02-09T02:06:46.634Z,991.83
2024-02-09T02:07:46.866Z,991.77
2024-02-09T02:08:47.009Z,991.71
2024-02-09T02:09:47.207Z,991.69
2024-02-09T02:10:47.462Z,991.65
2024-02-09T02:11:47.598Z,991.60
2024-02-09T02:12:47.775Z,991.62
2024-02-09T02:13:47.976Z,991.65
2024-02-09T02:14:48.141Z,991.62
2024-02-09T02:15:48.325Z,991.64
2024-02-09T02:16:48.520Z,991.70
2024-02-09T02:17:48.726Z,991.69
2024-02-09T02:18:48.932Z,991.69
2024-02-09T02:19:49.198Z,991.66
2024-02-09T02:20:49.264Z,991.63
2024-02-09T02:21:49.434Z,991.63
2024-02-09T02:22:49.575Z,991.63
2024-02-09T02:23:49.757Z,991.61
2024-02-09T02:24:49.944Z,991.60
2024-02-09T02:25:50.218Z,991.50
2024-02-09T02:26:50.347Z,991.46
2024-02-09T02:27:50.514Z,991.42
2024-02-09T02:28:50.687Z,991.45
2024-02-09T02:29:50.865Z,991.43
2024-02-09T02:30:51.075Z,991.51
2024-02-09T02:31:51.246Z,991.49
2024-02-09T02:32:51.524Z,991.45
2024-02-09T02:33:51.861Z,991.45
2024-02-09T02:34:51.883Z,991.40
2024-02-09T02:35:51.945Z,991.37
2024-02-09T02:36:52.145Z,991.31
2024-02-09T02:37:52.305Z,991.34
2024-02-09T02:38:52.469Z,991.31
2024-02-09T02:39:52.651Z,991.27
2024-02-09T02:40:52.814Z,991.24
2024-02-09T02:41:52.997Z,991.28
2024-02-09T02:42:53.139Z,991.22
2024-02-09T02:43:53.318Z,991.24
2024-02-09T02:44:53.490Z,991.25
2024-02-09T02:45:53.680Z,991.22
2024-02-09T02:46:53.850Z,991.16
2024-02-09T02:47:54.049Z,991.10
2024-02-09T02:48:54.197Z,991.10
2024-02-09T02:49:54.423Z,991.06
2024-02-09T02:50:54.587Z,991.05
2024-02-09T02:51:54.750Z,991.03
2024-02-09T02:52:54.934Z,991.02
2024-02-09T02:53:55.102Z,991.00
2024-02-09T02:54:56.319Z,991.00
2024-02-09T02:55:55.457Z,990.98
2024-02-09T02:56:55.636Z,990.96
2024-02-09T02:57:55.831Z,991.00
2024-02-09T02:58:56.003Z,990.99
2024-02-09T02:59:56.175Z,990.96
2024-02-09T03:00:56.423Z,990.97
2024-02-09T03:01:56.477Z,991.02
2024-02-09T03:02:56.664Z,991.02
2024-02-09T03:03:56.929Z,991.02
2024-02-09T03:04:57.031Z,991.00
2024-02-09T03:05:57.229Z,991.00
2024-02-09T03:07:21.989Z,990.93
2024-02-09T03:08:57.931Z,990.89
2024-02-09T03:09:57.889Z,990.89
2024-02-09T03:10:58.129Z,990.86
2024-02-09T03:11:58.157Z,990.79
2024-02-09T03:12:58.392Z,990.74
2024-02-09T03:13:58.458Z,990.74
2024-02-09T03:14:58.642Z,990.76
2024-02-09T03:15:58.857Z,990.69
2024-02-09T03:16:59.005Z,990.67
2024-02-09T03:17:59.196Z,990.66
2024-02-09T03:18:59.497Z,990.63
2024-02-09T03:19:59.588Z,990.67
2024-02-09T03:21:00.409Z,990.65
2024-02-09T03:21:59.982Z,990.61
2024-02-09T03:23:00.026Z,990.66
2024-02-09T03:24:00.217Z,990.57
2024-02-09T03:25:00.485Z,990.59
2024-02-09T03:26:00.544Z,990.63
2024-02-09T03:27:00.692Z,990.62
2024-02-09T03:28:00.894Z,990.62
2024-02-09T03:29:01.079Z,990.65
2024-02-09T03:30:01.139Z,990.63
2024-02-09T03:31:01.456Z,990.66
2024-02-09T03:32:01.471Z,990.66
2024-02-09T03:33:01.734Z,990.67
2024-02-09T03:34:02.146Z,990.69
2024-02-09T03:35:02.187Z,990.63
2024-02-09T03:36:02.216Z,990.69
2024-02-09T03:37:02.414Z,990.66
2024-02-09T03:38:02.571Z,990.60
2024-02-09T03:39:02.754Z,990.55
2024-02-09T03:40:02.975Z,990.51
2024-02-09T03:41:03.170Z,990.50
2024-02-09T03:42:03.372Z,990.54
2024-02-09T03:43:03.624Z,990.52
2024-02-09T03:44:03.693Z,990.49
2024-02-09T03:45:03.892Z,990.51
2024-02-09T03:46:04.117Z,990.50
2024-02-09T03:47:04.269Z,990.48
2024-02-09T03:48:04.553Z,990.48
2024-02-09T03:49:04.780Z,990.49
2024-02-09T03:50:04.873Z,990.54
2024-02-09T03:51:05.053Z,990.48
2024-02-09T03:52:05.219Z,990.54
2024-02-09T03:53:06.634Z,990.52
2024-02-09T03:54:05.528Z,990.54
2024-02-09T03:55:05.720Z,990.55
2024-02-09T03:56:05.900Z,990.59
2024-02-09T03:57:06.098Z,990.56
2024-02-09T03:58:06.309Z,990.56
2024-02-09T03:59:06.494Z,990.57
2024-02-09T04:00:06.642Z,990.57
2024-02-09T04:01:06.897Z,990.61
2024-02-09T04:02:07.087Z,990.65
2024-02-09T04:03:07.185Z,990.61
2024-02-09T04:04:07.571Z,990.65
2024-02-09T04:05:07.665Z,990.62
2024-02-09T04:06:07.750Z,990.57
2024-02-09T04:07:07.795Z,990.57
2024-02-09T04:08:07.962Z,990.51
2024-02-09T04:09:30.805Z,990.50
2024-02-09T04:11:08.484Z,990.50
2024-02-09T04:12:08.647Z,990.52
2024-02-09T04:13:08.993Z,990.48
2024-02-09T04:14:09.023Z,990.52
2024-02-09T04:15:09.220Z,990.46
2024-02-09T04:16:09.610Z,990.48
2024-02-09T04:17:09.581Z,990.48
2024-02-09T04:18:10.273Z,990.47
2024-02-09T04:19:10.065Z,990.45
2024-02-09T04:20:10.035Z,990.45
2024-02-09T04:21:10.246Z,990.45
2024-02-09T04:22:10.441Z,990.38
2024-02-09T04:23:10.600Z,990.42
2024-02-09T04:24:10.803Z,990.44
2024-02-09T04:25:11.041Z,990.38
2024-02-09T04:26:11.207Z,990.37
2024-02-09T04:27:11.380Z,990.41
2024-02-09T04:28:11.586Z,990.34
2024-02-09T04:29:11.753Z,990.36
2024-02-09T04:30:11.918Z,990.29
2024-02-09T04:31:12.163Z,990.24
2024-02-09T04:32:12.347Z,990.23
2024-02-09T04:33:12.581Z,990.18
2024-02-09T04:34:12.851Z,990.14
2024-02-09T04:35:13.329Z,990.14
2024-02-09T04:36:13.129Z,990.15
2024-02-09T04:37:13.354Z,990.11
2024-02-09T04:38:13.488Z,990.09
2024-02-09T04:39:13.680Z,990.03
2024-02-09T04:40:13.892Z,989.98
2024-02-09T04:41:14.069Z,990.05
2024-02-09T04:42:14.228Z,989.95
2024-02-09T04:43:14.482Z,989.95
2024-02-09T04:44:14.608Z,989.95
2024-02-09T04:45:14.778Z,989.97
2024-02-09T04:46:15.004Z,989.93
2024-02-09T04:47:15.137Z,989.89
2024-02-09T04:48:15.390Z,989.89
2024-02-09T04:49:15.579Z,989.76
2024-02-09T04:50:15.671Z,989.85
2024-02-09T04:51:15.852Z,989.82
2024-02-09T04:52:16.087Z,989.79
2024-02-09T04:53:16.308Z,989.73
2024-02-09T04:54:16.419Z,989.70
2024-02-09T04:55:16.651Z,989.71
2024-02-09T04:56:16.796Z,989.69
2024-02-09T04:57:16.977Z,989.60
2024-02-09T04:58:17.168Z,989.67
2024-02-09T04:59:17.303Z,989.57
2024-02-09T05:00:17.532Z,989.51
2024-02-09T05:01:17.740Z,989.55
2024-02-09T05:02:17.885Z,989.50
2024-02-09T05:03:18.055Z,989.49
2024-02-09T05:04:18.420Z,989.43
2024-02-09T05:05:18.600Z,989.41
2024-02-09T05:06:18.587Z,989.44
2024-02-09T05:07:18.816Z,989.40
2024-02-09T05:08:18.872Z,989.39
2024-02-09T05:09:21.065Z,989.36
2024-02-09T05:10:19.158Z,989.35
2024-02-09T05:11:19.378Z,989.28
2024-02-09T05:12:19.540Z,989.28
2024-02-09T05:13:19.762Z,989.30
2024-02-09T05:14:19.927Z,989.28
2024-02-09T05:15:20.082Z,989.26
2024-02-09T05:16:20.370Z,989.20
2024-02-09T05:17:20.390Z,989.22
2024-02-09T05:18:20.663Z,989.22
2024-02-09T05:19:20.818Z,989.23
2024-02-09T05:20:20.844Z,989.18
2024-02-09T05:21:20.996Z,989.19
2024-02-09T05:22:21.215Z,989.23
2024-02-09T05:23:21.311Z,989.19
2024-02-09T05:24:21.478Z,989.18
2024-02-09T05:25:21.673Z,989.20
2024-02-09T05:26:21.853Z,989.10
2024-02-09T05:27:22.085Z,989.14
2024-02-09T05:28:22.261Z,989.10
2024-02-09T05:29:22.402Z,989.09
2024-02-09T05:30:22.576Z,989.00
2024-02-09T05:31:22.902Z,988.99
2024-02-09T05:32:22.978Z,989.00
2024-02-09T05:33:23.139Z,988.99
2024-02-09T05:34:23.476Z,988.95
2024-02-09T05:35:23.630Z,988.99
2024-02-09T05:36:23.725Z,989.03
2024-02-09T05:37:23.936Z,989.01
2024-02-09T05:38:24.114Z,988.97
2024-02-09T05:39:24.293Z,988.98
2024-02-09T05:40:24.494Z,989.02
2024-02-09T05:41:25.798Z,988.89
2024-02-09T05:42:24.828Z,988.91
2024-02-09T05:43:25.030Z,988.89
2024-02-09T05:44:25.201Z,988.87
2024-02-09T05:45:25.415Z,988.82
2024-02-09T05:46:25.677Z,988.77
2024-02-09T05:47:25.714Z,988.80
2024-02-09T05:48:25.911Z,988.80
2024-02-09T05:49:26.404Z,988.80
2024-02-09T05:50:30.630Z,988.78
2024-02-09T05:51:27.475Z,988.74
2024-02-09T05:52:26.668Z,988.75
2024-02-09T05:53:26.842Z,988.80
2024-02-09T05:54:27.322Z,988.80
2024-02-09T05:55:27.217Z,988.76
2024-02-09T05:56:27.639Z,988.74
2024-02-09T05:57:27.581Z,988.70
2024-02-09T05:58:27.817Z,988.64
2024-02-09T05:59:27.949Z,988.61
2024-02-09T06:00:28.147Z,988.61
2024-02-09T06:01:28.378Z,988.56
2024-02-09T06:02:28.535Z,988.55
2024-02-09T06:03:28.901Z,988.57
2024-02-09T06:04:29.040Z,988.62
2024-02-09T06:05:29.317Z,988.59
2024-02-09T06:06:29.382Z,988.59
2024-02-09T06:07:29.647Z,988.63
2024-02-09T06:08:29.622Z,988.52
2024-02-09T06:09:29.796Z,988.55
2024-02-09T06:10:30.092Z,988.53
2024-02-09T06:11:30.194Z,988.53
2024-02-09T06:12:30.467Z,988.49
2024-02-09T06:13:30.586Z,988.47
2024-02-09T06:14:30.666Z,988.47
2024-02-09T06:15:30.844Z,988.46
2024-02-09T06:16:31.061Z,988.48
2024-02-09T06:17:31.231Z,988.43
2024-02-09T06:18:31.450Z,988.45
2024-02-09T06:19:31.681Z,988.46
2024-02-09T06:20:31.719Z,988.47
2024-02-09T06:21:31.884Z,988.49
2024-02-09T06:22:32.111Z,988.51
2024-02-09T06:23:32.164Z,988.51
2024-02-09T06:24:32.348Z,988.55
2024-02-09T06:25:32.632Z,988.59
2024-02-09T06:26:32.711Z,988.58
2024-02-09T06:27:32.901Z,988.64
2024-02-09T06:28:33.093Z,988.58
2024-02-09T06:29:33.464Z,988.60
2024-02-09T06:30:33.383Z,988.56
2024-02-09T06:31:33.625Z,988.54
2024-02-09T06:32:33.791Z,988.59
2024-02-09T06:33:34.068Z,988.61
2024-02-09T06:34:34.222Z,988.56
2024-02-09T06:35:34.316Z,988.57
2024-02-09T06:36:34.500Z,988.54
2024-02-09T06:37:34.757Z,988.56
2024-02-09T06:38:34.760Z,988.56
2024-02-09T06:39:34.917Z,988.50
2024-02-09T06:40:35.118Z,988.50
2024-02-09T06:41:35.287Z,988.46
2024-02-09T06:42:35.475Z,988.45
2024-02-09T06:43:35.695Z,988.39
2024-02-09T06:44:35.899Z,988.44
2024-02-09T06:45:35.964Z,988.44
2024-02-09T06:47:36.366Z,988.48
2024-02-09T06:48:36.612Z,988.45
2024-02-09T06:49:36.728Z,988.52
2024-02-09T06:50:36.959Z,988.52
2024-02-09T06:51:36.994Z,988.51
2024-02-09T06:52:37.219Z,988.50
2024-02-09T06:53:37.381Z,988.51
2024-02-09T06:54:37.559Z,988.42
2024-02-09T06:55:38.048Z,988.41
2024-02-09T06:56:37.902Z,988.40
2024-02-09T06:57:38.119Z,988.34
2024-02-09T06:58:38.387Z,988.30
2024-02-09T06:59:38.483Z,988.29
2024-02-09T07:00:38.664Z,988.25
2024-02-09T07:01:38.778Z,988.28
2024-02-09T07:02:39.062Z,988.29
2024-02-09T07:03:39.108Z,988.30
2024-02-09T07:04:39.528Z,988.35
2024-02-09T07:05:39.474Z,988.31
2024-02-09T07:06:39.672Z,988.23
2024-02-09T07:07:39.892Z,988.31
2024-02-09T07:08:39.939Z,988.28
2024-02-09T07:09:40.161Z,988.32
2024-02-09T07:10:40.375Z,988.27
2024-02-09T07:11:40.497Z,988.32
2024-02-09T07:12:40.752Z,988.34
2024-02-09T07:13:41.049Z,988.42
2024-02-09T07:14:41.116Z,988.44
2024-02-09T07:15:41.294Z,988.45
2024-02-09T07:16:41.540Z,988.43
2024-02-09T07:17:44.505Z,988.44
2024-02-09T07:18:41.820Z,988.39
2024-02-09T07:19:42.072Z,988.38
2024-02-09T07:20:42.145Z,988.38
2024-02-09T07:21:42.326Z,988.32
2024-02-09T07:22:42.574Z,988.34
2024-02-09T07:23:42.623Z,988.33
2024-02-09T07:24:42.828Z,988.29
2024-02-09T07:25:43.141Z,988.21
2024-02-09T07:26:43.229Z,988.20
2024-02-09T07:27:43.311Z,988.14
2024-02-09T07:28:43.529Z,988.20
2024-02-09T07:29:43.669Z,988.15
2024-02-09T07:30:43.866Z,988.12
2024-02-09T07:31:44.093Z,988.20
2024-02-09T07:32:44.290Z,988.17
2024-02-09T07:33:44.383Z,988.22
2024-02-09T07:34:44.833Z,988.18
2024-02-09T07:35:44.679Z,988.19
2024-02-09T07:36:44.853Z,988.14
2024-02-09T07:37:45.145Z,988.16
2024-02-09T07:38:45.214Z,988.17
2024-02-09T07:39:45.340Z,988.14
2024-02-09T07:40:45.624Z,988.15
2024-02-09T07:41:45.669Z,988.09
2024-02-09T07:42:45.913Z,988.07
2024-02-09T07:43:45.992Z,988.06
2024-02-09T07:44:46.121Z,988.07
2024-02-09T07:45:46.431Z,988.07
2024-02-09T07:46:46.644Z,988.06
2024-02-09T07:47:46.774Z,988.04
2024-02-09T07:48:46.913Z,988.08
2024-02-09T07:49:47.048Z,988.05
2024-02-09T07:50:47.196Z,988.00
2024-02-09T07:51:47.375Z,987.94
2024-02-09T07:52:47.626Z,987.95
2024-02-09T07:53:47.714Z,987.94
2024-02-09T07:54:47.884Z,987.98
2024-02-09T07:55:48.176Z,987.99
2024-02-09T07:56:48.251Z,988.00
2024-02-09T07:57:48.435Z,987.98
2024-02-09T07:58:48.652Z,987.98
2024-02-09T07:59:48.810Z,987.95
2024-02-09T08:00:49.053Z,987.94
2024-02-09T08:01:49.220Z,987.94
2024-02-09T08:02:49.301Z,987.97
2024-02-09T08:03:49.472Z,987.97
2024-02-09T08:04:49.846Z,987.95
2024-02-09T08:05:49.770Z,987.97
2024-02-09T08:06:50.261Z,987.93
2024-02-09T08:07:50.416Z,987.92
2024-02-09T08:08:50.198Z,987.93
2024-02-09T08:09:50.352Z,987.89
2024-02-09T08:10:51.041Z,987.91
2024-02-09T08:11:50.672Z,987.88
2024-02-09T08:12:50.854Z,987.90
2024-02-09T08:13:51.090Z,987.94
2024-02-09T08:14:51.246Z,987.93
2024-02-09T08:15:51.410Z,987.90
2024-02-09T08:16:51.619Z,987.90
2024-02-09T08:17:53.667Z,987.85
2024-02-09T08:18:51.975Z,987.85
2024-02-09T08:19:52.208Z,987.79
2024-02-09T08:20:52.269Z,987.86
2024-02-09T08:21:52.437Z,987.81
2024-02-09T08:22:52.675Z,987.80
2024-02-09T08:23:52.808Z,987.77
2024-02-09T08:24:52.919Z,987.79
2024-02-09T08:25:53.095Z,987.70
2024-02-09T08:26:54.284Z,987.74
2024-02-09T08:27:53.460Z,987.70
2024-02-09T08:28:53.721Z,987.70
2024-02-09T08:29:53.759Z,987.69
2024-02-09T08:30:53.965Z,987.68
2024-02-09T08:31:54.025Z,987.68
2024-02-09T08:32:54.261Z,987.68
2024-02-09T08:33:54.487Z,987.70
2024-02-09T08:34:54.782Z,987.72
2024-02-09T08:35:54.802Z,987.71
2024-02-09T08:36:54.973Z,987.70
2024-02-09T08:37:55.193Z,987.69
2024-02-09T08:38:55.226Z,987.65
2024-02-09T08:39:55.396Z,987.68
2024-02-09T08:40:55.606Z,987.66
2024-02-09T08:41:55.759Z,987.66
2024-02-09T08:42:55.950Z,987.63
2024-02-09T08:43:56.114Z,987.62
2024-02-09T08:44:56.291Z,987.63
2024-02-09T08:45:56.454Z,987.63
2024-02-09T08:46:56.681Z,987.61
2024-02-09T08:47:56.848Z,987.59
2024-02-09T08:48:57.055Z,987.56
2024-02-09T08:49:57.296Z,987.58
2024-02-09T08:50:57.354Z,987.54
2024-02-09T08:51:57.520Z,987.55
2024-02-09T08:52:57.691Z,987.55
2024-02-09T08:53:57.867Z,987.52
2024-02-09T08:54:58.056Z,987.51
2024-02-09T08:55:58.241Z,987.49
2024-02-09T08:56:58.440Z,987.44
2024-02-09T08:57:58.594Z,987.42
2024-02-09T08:58:58.761Z,987.39
2024-02-09T08:59:58.928Z,987.39
2024-02-09T09:01:04.900Z,987.42
2024-02-09T09:02:00.349Z,987.42
2024-02-09T09:02:59.473Z,987.40
2024-02-09T09:03:59.641Z,987.44
2024-02-09T09:04:59.841Z,987.39
2024-02-09T09:05:59.894Z,987.40
2024-02-09T09:07:00.115Z,987.31
2024-02-09T09:08:00.521Z,987.28
2024-02-09T09:09:00.428Z,987.30
2024-02-09T09:10:00.569Z,987.31
2024-02-09T09:11:00.689Z,987.31
2024-02-09T09:12:03.841Z,987.30
2024-02-09T09:13:01.092Z,987.26
2024-02-09T09:14:01.249Z,987.31
2024-02-09T09:15:01.429Z,987.30
2024-02-09T09:16:01.720Z,987.23
2024-02-09T09:17:12.384Z,987.24
2024-02-09T09:18:02.993Z,987.24
2024-02-09T09:19:02.360Z,987.19
2024-02-09T09:20:02.678Z,987.25
2024-02-09T09:21:02.457Z,987.21
2024-02-09T09:22:02.649Z,987.18
2024-02-09T09:23:02.822Z,987.20
2024-02-09T09:24:03.300Z,987.19
2024-02-09T09:25:03.182Z,987.17
2024-02-09T09:26:09.817Z,987.21
2024-02-09T09:27:04.477Z,987.19
2024-02-09T09:28:03.724Z,987.17
2024-02-09T09:29:03.755Z,987.16
2024-02-09T09:30:03.892Z,987.15
2024-02-09T09:31:04.063Z,987.16
2024-02-09T09:32:04.256Z,987.15
2024-02-09T09:33:04.389Z,987.13
2024-02-09T09:34:04.454Z,987.17
2024-02-09T09:35:04.712Z,987.17
2024-02-09T09:36:04.850Z,987.16
2024-02-09T09:37:04.890Z,987.17
2024-02-09T09:38:05.061Z,987.18
2024-02-09T09:39:05.255Z,987.18
2024-02-09T09:40:05.494Z,987.14
2024-02-09T09:41:05.588Z,987.16
2024-02-09T09:42:05.647Z,987.17
2024-02-09T09:43:05.864Z,987.18
2024-02-09T09:44:06.069Z,987.16
2024-02-09T09:45:06.116Z,987.18
2024-02-09T09:46:06.339Z,987.16
2024-02-09T09:47:06.480Z,987.15
2024-02-09T09:48:06.888Z,987.14
2024-02-09T09:49:06.956Z,987.06
2024-02-09T09:50:07.058Z,987.11
2024-02-09T09:51:07.186Z,987.17
2024-02-09T09:52:07.397Z,987.20
2024-02-09T09:53:07.576Z,987.25
2024-02-09T09:54:07.764Z,987.19
2024-02-09T09:55:07.969Z,987.16
2024-02-09T09:56:08.133Z,987.17
2024-02-09T09:57:08.295Z,987.13
2024-02-09T09:58:08.584Z,987.18
2024-02-09T09:59:08.659Z,987.17
2024-02-09T10:00:08.827Z,987.16
2024-02-09T10:01:12.098Z,987.17
2024-02-09T10:02:09.224Z,987.18
2024-02-09T10:03:09.318Z,987.15
2024-02-09T10:04:09.554Z,987.12
2024-02-09T10:05:09.706Z,987.03
2024-02-09T10:06:09.977Z,987.05
2024-02-09T10:07:09.872Z,987.05
2024-02-09T10:08:10.050Z,987.06
2024-02-09T10:09:10.124Z,987.10
2024-02-09T10:10:10.310Z,987.10
2024-02-09T10:11:10.470Z,987.05
2024-02-09T10:12:10.644Z,987.03
2024-02-09T10:13:11.712Z,987.02
2024-02-09T10:14:11.000Z,987.02
2024-02-09T10:15:11.173Z,987.01
2024-02-09T10:16:11.365Z,986.99
2024-02-09T10:17:11.519Z,986.98
2024-02-09T10:18:12.050Z,986.97
2024-02-09T10:19:11.837Z,986.98
2024-02-09T10:20:11.897Z,986.93
2024-02-09T10:21:12.069Z,986.93
2024-02-09T10:22:19.363Z,986.86
2024-02-09T10:23:13.378Z,986.92
2024-02-09T10:24:13.831Z,986.90
2024-02-09T10:25:12.736Z,986.92
2024-02-09T10:26:12.923Z,986.89
2024-02-09T10:27:13.045Z,986.85
2024-02-09T10:28:13.280Z,986.77
2024-02-09T10:29:13.323Z,986.74
2024-02-09T10:30:13.493Z,986.74
2024-02-09T10:31:13.696Z,986.79
2024-02-09T10:32:13.842Z,986.86
2024-02-09T10:33:14.038Z,986.86
2024-02-09T10:34:14.460Z,986.85
2024-02-09T10:35:14.540Z,986.84
2024-02-09T10:36:14.715Z,986.81
2024-02-09T10:37:21.625Z,986.79
2024-02-09T10:38:15.887Z,986.77
2024-02-09T10:39:14.910Z,986.77
2024-02-09T10:40:15.105Z,986.79
2024-02-09T10:41:15.259Z,986.77
2024-02-09T10:42:15.429Z,986.78
2024-02-09T10:43:15.617Z,986.72
2024-02-09T10:44:15.761Z,986.73
2024-02-09T10:45:21.812Z,986.79
2024-02-09T10:46:17.114Z,986.80
2024-02-09T10:47:16.259Z,986.79
2024-02-09T10:48:16.523Z,986.72
2024-02-09T10:49:16.802Z,986.74
2024-02-09T10:50:16.831Z,986.73
2024-02-09T10:51:16.868Z,986.71
2024-02-09T10:52:17.061Z,986.71
2024-02-09T10:53:17.205Z,986.74
2024-02-09T10:54:17.360Z,986.79
2024-02-09T10:55:17.554Z,986.83
2024-02-09T10:56:17.721Z,986.86
2024-02-09T10:57:17.891Z,986.87
2024-02-09T10:58:18.059Z,986.81
2024-02-09T10:59:18.213Z,986.78
2024-02-09T11:00:18.376Z,986.74
2024-02-09T11:01:18.583Z,986.74
2024-02-09T11:02:18.759Z,986.71
2024-02-09T11:03:18.932Z,986.64
2024-02-09T11:04:19.177Z,986.63
2024-02-09T11:05:19.552Z,986.65
2024-02-09T11:06:19.460Z,986.60
2024-02-09T11:07:19.555Z,986.60
2024-02-09T11:08:19.740Z,986.58
2024-02-09T11:09:19.875Z,986.56
2024-02-09T11:10:20.067Z,986.49
2024-02-09T11:11:20.186Z,986.52
2024-02-09T11:12:20.365Z,986.53
2024-02-09T11:13:20.534Z,986.57
2024-02-09T11:14:20.711Z,986.55
2024-02-09T11:15:20.985Z,986.58
2024-02-09T11:16:21.126Z,986.58
2024-02-09T11:17:21.324Z,986.58
2024-02-09T11:18:21.520Z,986.54
2024-02-09T11:19:21.667Z,986.56
2024-02-09T11:20:21.832Z,986.55
2024-02-09T11:21:21.993Z,986.54
2024-02-09T11:22:22.189Z,986.57
2024-02-09T11:23:22.315Z,986.59
2024-02-09T11:24:22.483Z,986.53
2024-02-09T11:25:22.723Z,986.56
2024-02-09T11:26:22.764Z,986.54
2024-02-09T11:27:22.910Z,986.51
2024-02-09T11:28:23.095Z,986.56
2024-02-09T11:29:23.241Z,986.51
2024-02-09T11:30:23.416Z,986.54
2024-02-09T11:31:23.567Z,986.56
2024-02-09T11:32:23.737Z,986.55
2024-02-09T11:33:23.936Z,986.54
2024-02-09T11:34:24.104Z,986.49
2024-02-09T11:35:24.364Z,986.47
2024-02-09T11:36:24.400Z,986.45
2024-02-09T11:37:24.573Z,986.44
2024-02-09T11:38:24.719Z,986.45
2024-02-09T11:39:24.883Z,986.40
2024-02-09T11:40:25.070Z,986.38
2024-02-09T11:41:25.243Z,986.40
2024-02-09T11:42:34.562Z,986.38
2024-02-09T11:43:26.611Z,986.42
2024-02-09T11:44:25.776Z,986.43
2024-02-09T11:45:25.838Z,986.45
2024-02-09T11:46:26.028Z,986.46
2024-02-09T11:47:26.149Z,986.44
2024-02-09T11:48:26.416Z,986.47
2024-02-09T11:49:26.559Z,986.51
2024-02-09T11:50:26.586Z,986.51
2024-02-09T11:51:26.763Z,986.48
2024-02-09T11:52:27.286Z,986.45
2024-02-09T11:53:27.218Z,986.47
2024-02-09T11:54:27.254Z,986.45
2024-02-09T11:55:27.414Z,986.41
2024-02-09T11:56:27.575Z,986.43
2024-02-09T11:57:27.724Z,986.38
2024-02-09T11:58:27.940Z,986.36
2024-02-09T11:59:28.058Z,986.47
2024-02-09T12:00:28.220Z,986.45
2024-02-09T12:01:28.589Z,986.40
2024-02-09T12:02:28.534Z,986.41
2024-02-09T12:03:28.681Z,986.36
2024-02-09T12:04:29.018Z,986.29
2024-02-09T12:05:29.094Z,986.28
2024-02-09T12:06:29.140Z,986.30
2024-02-09T12:07:29.381Z,986.31
2024-02-09T12:08:29.444Z,986.25
2024-02-09T12:09:29.584Z,986.20
2024-02-09T12:10:29.743Z,986.18
2024-02-09T12:11:29.865Z,986.19
2024-02-09T12:12:30.047Z,986.19
2024-02-09T12:13:30.113Z,986.21
2024-02-09T12:14:30.762Z,986.18
2024-02-09T12:15:30.376Z,986.25
2024-02-09T12:16:30.562Z,986.27
2024-02-09T12:17:30.665Z,986.22
2024-02-09T12:18:30.848Z,986.22
2024-02-09T12:19:30.971Z,986.19
2024-02-09T12:20:30.975Z,986.17
2024-02-09T12:21:31.154Z,986.15
2024-02-09T12:22:31.325Z,986.12
2024-02-09T12:23:31.357Z,986.12
2024-02-09T12:24:31.535Z,986.16
2024-02-09T12:25:31.718Z,986.12
2024-02-09T12:26:31.739Z,986.11
2024-02-09T12:27:31.845Z,986.08
2024-02-09T12:28:31.985Z,986.10
2024-02-09T12:29:32.243Z,986.12
2024-02-09T12:30:32.267Z,986.14
2024-02-09T12:31:32.466Z,986.11
2024-02-09T12:32:32.714Z,986.20
2024-02-09T12:33:32.773Z,986.19